sensor_id;sensor_type;location;lat;lon;timestamp;temperature;humidity
10171;DHT22;5127;50.922;6.988;2022-11-20T00:01:57;7.40;67.50
10171;DHT22;5127;50.922;6.988;2022-11-20T00:04:24;7.40;67.40
10171;DHT22;5127;50.922;6.988;2022-11-20T00:06:52;7.30;67.40
10171;DHT22;5127;50.922;6.988;2022-11-20T00:09:19;7.30;67.40
10171;DHT22;5127;50.922;6.988;2022-11-20T00:11:46;7.30;67.40
10171;DHT22;5127;50.922;6.988;2022-11-20T00:14:14;7.30;67.50
10171;DHT22;5127;50.922;6.988;2022-11-20T00:16:41;7.30;67.70
10171;DHT22;5127;50.922;6.988;2022-11-20T00:19:09;7.30;67.50
10171;DHT22;5127;50.922;6.988;2022-11-20T00:21:37;7.20;67.30
10171;DHT22;5127;50.922;6.988;2022-11-20T00:24:05;7.30;67.60
10171;DHT22;5127;50.922;6.988;2022-11-20T00:26:32;7.30;67.60
10171;DHT22;5127;50.922;6.988;2022-11-20T00:29:01;7.30;67.60
10171;DHT22;5127;50.922;6.988;2022-11-20T00:31:29;7.30;67.70
10171;DHT22;5127;50.922;6.988;2022-11-20T00:33:59;7.30;67.70
10171;DHT22;5127;50.922;6.988;2022-11-20T00:36:29;7.30;67.80
10171;DHT22;5127;50.922;6.988;2022-11-20T00:38:59;7.30;67.40
10171;DHT22;5127;50.922;6.988;2022-11-20T00:41:27;7.30;67.70
10171;DHT22;5127;50.922;6.988;2022-11-20T00:43:55;7.30;67.70
10171;DHT22;5127;50.922;6.988;2022-11-20T00:46:24;7.30;67.60
10171;DHT22;5127;50.922;6.988;2022-11-20T00:48:52;7.30;67.50
10171;DHT22;5127;50.922;6.988;2022-11-20T00:51:22;7.30;67.50
10171;DHT22;5127;50.922;6.988;2022-11-20T00:53:50;7.30;67.40
10171;DHT22;5127;50.922;6.988;2022-11-20T00:56:18;7.30;67.40
10171;DHT22;5127;50.922;6.988;2022-11-20T00:58:47;7.30;67.40
10171;DHT22;5127;50.922;6.988;2022-11-20T01:01:16;7.30;67.40
10171;DHT22;5127;50.922;6.988;2022-11-20T01:03:45;7.30;67.50
10171;DHT22;5127;50.922;6.988;2022-11-20T01:06:15;7.30;67.50
10171;DHT22;5127;50.922;6.988;2022-11-20T01:08:43;7.30;67.40
10171;DHT22;5127;50.922;6.988;2022-11-20T01:11:13;7.30;67.50
10171;DHT22;5127;50.922;6.988;2022-11-20T01:13:42;7.40;67.30
10171;DHT22;5127;50.922;6.988;2022-11-20T01:16:11;7.40;67.40
10171;DHT22;5127;50.922;6.988;2022-11-20T01:18:40;7.30;67.20
10171;DHT22;5127;50.922;6.988;2022-11-20T01:21:10;7.30;67.10
10171;DHT22;5127;50.922;6.988;2022-11-20T01:23:40;7.30;67.30
10171;DHT22;5127;50.922;6.988;2022-11-20T01:26:09;7.30;67.20
10171;DHT22;5127;50.922;6.988;2022-11-20T01:28:38;7.30;67.20
10171;DHT22;5127;50.922;6.988;2022-11-20T01:31:13;7.30;67.10
10171;DHT22;5127;50.922;6.988;2022-11-20T01:33:41;7.30;66.70
10171;DHT22;5127;50.922;6.988;2022-11-20T01:36:10;7.30;67.30
10171;DHT22;5127;50.922;6.988;2022-11-20T01:38:37;7.30;67.20
10171;DHT22;5127;50.922;6.988;2022-11-20T01:41:06;7.30;67.00
10171;DHT22;5127;50.922;6.988;2022-11-20T01:43:34;7.30;67.10
10171;DHT22;5127;50.922;6.988;2022-11-20T01:46:14;7.30;67.20
10171;DHT22;5127;50.922;6.988;2022-11-20T01:48:47;7.30;66.40
10171;DHT22;5127;50.922;6.988;2022-11-20T01:51:24;7.30;67.00
10171;DHT22;5127;50.922;6.988;2022-11-20T01:53:54;7.30;67.00
10171;DHT22;5127;50.922;6.988;2022-11-20T01:56:23;7.30;67.30
10171;DHT22;5127;50.922;6.988;2022-11-20T01:58:52;7.30;67.30
10171;DHT22;5127;50.922;6.988;2022-11-20T02:01:22;7.30;67.30
10171;DHT22;5127;50.922;6.988;2022-11-20T02:03:50;7.30;67.30
10171;DHT22;5127;50.922;6.988;2022-11-20T02:06:23;7.30;67.40
10171;DHT22;5127;50.922;6.988;2022-11-20T02:08:51;7.30;67.00
10171;DHT22;5127;50.922;6.988;2022-11-20T02:11:19;7.30;67.30
10171;DHT22;5127;50.922;6.988;2022-11-20T02:13:46;7.30;67.30
10171;DHT22;5127;50.922;6.988;2022-11-20T02:16:17;7.30;67.30
10171;DHT22;5127;50.922;6.988;2022-11-20T02:18:47;7.30;67.10
10171;DHT22;5127;50.922;6.988;2022-11-20T02:21:24;7.30;67.30
10171;DHT22;5127;50.922;6.988;2022-11-20T02:24:02;7.30;66.60
10171;DHT22;5127;50.922;6.988;2022-11-20T02:26:31;7.30;66.80
10171;DHT22;5127;50.922;6.988;2022-11-20T02:29:00;7.30;67.00
10171;DHT22;5127;50.922;6.988;2022-11-20T02:31:29;7.30;67.20
10171;DHT22;5127;50.922;6.988;2022-11-20T02:33:56;7.30;67.20
10171;DHT22;5127;50.922;6.988;2022-11-20T02:36:26;7.20;67.20
10171;DHT22;5127;50.922;6.988;2022-11-20T02:38:55;7.20;67.20
10171;DHT22;5127;50.922;6.988;2022-11-20T02:41:30;7.20;67.30
10171;DHT22;5127;50.922;6.988;2022-11-20T02:43:57;7.20;66.60
10171;DHT22;5127;50.922;6.988;2022-11-20T02:46:25;7.20;67.20
10171;DHT22;5127;50.922;6.988;2022-11-20T02:48:52;7.20;67.20
10171;DHT22;5127;50.922;6.988;2022-11-20T02:51:19;7.20;67.10
10171;DHT22;5127;50.922;6.988;2022-11-20T02:53:47;7.20;67.10
10171;DHT22;5127;50.922;6.988;2022-11-20T02:56:14;7.20;67.20
10171;DHT22;5127;50.922;6.988;2022-11-20T02:58:43;7.20;67.30
10171;DHT22;5127;50.922;6.988;2022-11-20T03:01:11;7.20;67.20
10171;DHT22;5127;50.922;6.988;2022-11-20T03:07:26;7.20;66.20
10171;DHT22;5127;50.922;6.988;2022-11-20T03:09:53;7.20;67.20
10171;DHT22;5127;50.922;6.988;2022-11-20T03:12:20;7.20;67.10
10171;DHT22;5127;50.922;6.988;2022-11-20T03:14:49;7.20;67.10
10171;DHT22;5127;50.922;6.988;2022-11-20T03:17:16;7.20;67.00
10171;DHT22;5127;50.922;6.988;2022-11-20T03:19:43;7.20;67.10
10171;DHT22;5127;50.922;6.988;2022-11-20T03:22:10;7.10;67.10
10171;DHT22;5127;50.922;6.988;2022-11-20T03:24:38;7.10;67.20
10171;DHT22;5127;50.922;6.988;2022-11-20T03:27:05;7.10;67.30
10171;DHT22;5127;50.922;6.988;2022-11-20T03:29:32;7.20;67.40
10171;DHT22;5127;50.922;6.988;2022-11-20T03:32:01;7.20;67.40
10171;DHT22;5127;50.922;6.988;2022-11-20T03:34:28;7.20;67.40
10171;DHT22;5127;50.922;6.988;2022-11-20T03:36:55;7.20;67.40
10171;DHT22;5127;50.922;6.988;2022-11-20T03:39:23;7.20;67.40
10171;DHT22;5127;50.922;6.988;2022-11-20T03:41:50;7.20;67.50
10171;DHT22;5127;50.922;6.988;2022-11-20T03:44:17;7.20;67.50
10171;DHT22;5127;50.922;6.988;2022-11-20T03:46:48;7.20;67.50
10171;DHT22;5127;50.922;6.988;2022-11-20T03:49:16;7.20;67.50
10171;DHT22;5127;50.922;6.988;2022-11-20T03:51:43;7.20;67.40
10171;DHT22;5127;50.922;6.988;2022-11-20T03:54:11;7.20;67.50
10171;DHT22;5127;50.922;6.988;2022-11-20T03:56:38;7.30;67.60
10171;DHT22;5127;50.922;6.988;2022-11-20T03:59:06;7.30;67.50
10171;DHT22;5127;50.922;6.988;2022-11-20T04:01:35;7.30;67.60
10171;DHT22;5127;50.922;6.988;2022-11-20T04:04:03;7.30;67.50
10171;DHT22;5127;50.922;6.988;2022-11-20T04:06:34;7.30;67.60
10171;DHT22;5127;50.922;6.988;2022-11-20T04:09:03;7.30;67.40
10171;DHT22;5127;50.922;6.988;2022-11-20T04:11:31;7.30;67.70
10171;DHT22;5127;50.922;6.988;2022-11-20T04:14:00;7.30;67.60
10171;DHT22;5127;50.922;6.988;2022-11-20T04:16:30;7.30;67.60
10171;DHT22;5127;50.922;6.988;2022-11-20T04:18:59;7.30;67.50
10171;DHT22;5127;50.922;6.988;2022-11-20T04:21:27;7.30;67.50
10171;DHT22;5127;50.922;6.988;2022-11-20T04:23:56;7.30;67.60
10171;DHT22;5127;50.922;6.988;2022-11-20T04:26:24;7.30;67.40
10171;DHT22;5127;50.922;6.988;2022-11-20T04:28:52;7.30;67.40
10171;DHT22;5127;50.922;6.988;2022-11-20T04:31:21;7.30;67.30
10171;DHT22;5127;50.922;6.988;2022-11-20T04:33:49;7.30;67.10
10171;DHT22;5127;50.922;6.988;2022-11-20T04:36:17;7.20;67.10
10171;DHT22;5127;50.922;6.988;2022-11-20T04:38:45;7.20;67.20
10171;DHT22;5127;50.922;6.988;2022-11-20T04:41:17;7.20;67.20
10171;DHT22;5127;50.922;6.988;2022-11-20T04:43:46;7.10;67.10
10171;DHT22;5127;50.922;6.988;2022-11-20T04:46:14;7.10;67.20
10171;DHT22;5127;50.922;6.988;2022-11-20T04:48:42;7.10;67.40
10171;DHT22;5127;50.922;6.988;2022-11-20T04:51:09;7.10;67.50
10171;DHT22;5127;50.922;6.988;2022-11-20T04:53:37;7.00;67.50
10171;DHT22;5127;50.922;6.988;2022-11-20T04:56:06;7.00;67.60
10171;DHT22;5127;50.922;6.988;2022-11-20T04:58:35;7.00;67.70
10171;DHT22;5127;50.922;6.988;2022-11-20T05:01:04;7.00;67.70
10171;DHT22;5127;50.922;6.988;2022-11-20T05:03:32;7.00;67.90
10171;DHT22;5127;50.922;6.988;2022-11-20T05:06:00;7.00;67.90
10171;DHT22;5127;50.922;6.988;2022-11-20T05:08:29;7.00;67.90
10171;DHT22;5127;50.922;6.988;2022-11-20T05:11:00;7.00;68.00
10171;DHT22;5127;50.922;6.988;2022-11-20T05:13:27;7.00;67.90
10171;DHT22;5127;50.922;6.988;2022-11-20T05:16:01;7.10;68.20
10171;DHT22;5127;50.922;6.988;2022-11-20T05:18:28;7.10;67.90
10171;DHT22;5127;50.922;6.988;2022-11-20T05:20:56;7.10;68.30
10171;DHT22;5127;50.922;6.988;2022-11-20T05:23:23;7.10;68.20
10171;DHT22;5127;50.922;6.988;2022-11-20T05:25:52;7.10;68.30
10171;DHT22;5127;50.922;6.988;2022-11-20T05:28:20;7.20;68.30
10171;DHT22;5127;50.922;6.988;2022-11-20T05:30:47;7.20;68.30
10171;DHT22;5127;50.922;6.988;2022-11-20T05:33:16;7.20;68.40
10171;DHT22;5127;50.922;6.988;2022-11-20T05:35:44;7.20;68.30
10171;DHT22;5127;50.922;6.988;2022-11-20T05:38:11;7.20;68.30
10171;DHT22;5127;50.922;6.988;2022-11-20T05:40:38;7.30;68.30
10171;DHT22;5127;50.922;6.988;2022-11-20T05:43:06;7.30;68.30
10171;DHT22;5127;50.922;6.988;2022-11-20T05:45:33;7.30;68.30
10171;DHT22;5127;50.922;6.988;2022-11-20T05:48:01;7.30;68.30
10171;DHT22;5127;50.922;6.988;2022-11-20T05:50:30;7.30;68.30
10171;DHT22;5127;50.922;6.988;2022-11-20T05:52:58;7.30;68.20
10171;DHT22;5127;50.922;6.988;2022-11-20T05:55:25;7.30;68.20
10171;DHT22;5127;50.922;6.988;2022-11-20T05:57:53;7.30;68.30
10171;DHT22;5127;50.922;6.988;2022-11-20T06:00:21;7.40;68.40
10171;DHT22;5127;50.922;6.988;2022-11-20T06:02:48;7.40;68.30
10171;DHT22;5127;50.922;6.988;2022-11-20T06:05:15;7.40;68.30
10171;DHT22;5127;50.922;6.988;2022-11-20T06:07:44;7.40;68.30
10171;DHT22;5127;50.922;6.988;2022-11-20T06:10:11;7.40;68.20
10171;DHT22;5127;50.922;6.988;2022-11-20T06:12:38;7.40;68.20
10171;DHT22;5127;50.922;6.988;2022-11-20T06:15:06;7.40;68.20
10171;DHT22;5127;50.922;6.988;2022-11-20T06:17:34;7.40;68.00
10171;DHT22;5127;50.922;6.988;2022-11-20T06:20:01;7.40;68.10
10171;DHT22;5127;50.922;6.988;2022-11-20T06:22:28;7.40;68.10
10171;DHT22;5127;50.922;6.988;2022-11-20T06:24:57;7.40;68.00
10171;DHT22;5127;50.922;6.988;2022-11-20T06:27:24;7.40;67.80
10171;DHT22;5127;50.922;6.988;2022-11-20T06:29:51;7.40;67.90
10171;DHT22;5127;50.922;6.988;2022-11-20T06:32:18;7.40;68.70
10171;DHT22;5127;50.922;6.988;2022-11-20T06:34:46;7.40;67.90
10171;DHT22;5127;50.922;6.988;2022-11-20T06:37:13;7.40;68.00
10171;DHT22;5127;50.922;6.988;2022-11-20T06:39:40;7.40;67.90
10171;DHT22;5127;50.922;6.988;2022-11-20T06:42:09;7.40;68.00
10171;DHT22;5127;50.922;6.988;2022-11-20T06:44:36;7.40;67.90
10171;DHT22;5127;50.922;6.988;2022-11-20T06:47:03;7.40;68.00
10171;DHT22;5127;50.922;6.988;2022-11-20T06:49:31;7.30;68.00
10171;DHT22;5127;50.922;6.988;2022-11-20T06:52:00;7.30;68.00
10171;DHT22;5127;50.922;6.988;2022-11-20T06:54:27;7.30;68.00
10171;DHT22;5127;50.922;6.988;2022-11-20T06:56:54;7.30;68.00
10171;DHT22;5127;50.922;6.988;2022-11-20T06:59:23;7.30;68.10
10171;DHT22;5127;50.922;6.988;2022-11-20T07:01:50;7.30;68.00
10171;DHT22;5127;50.922;6.988;2022-11-20T07:04:17;7.30;68.10
10171;DHT22;5127;50.922;6.988;2022-11-20T07:06:45;7.30;68.20
10171;DHT22;5127;50.922;6.988;2022-11-20T07:09:12;7.30;68.00
10171;DHT22;5127;50.922;6.988;2022-11-20T07:11:39;7.30;68.00
10171;DHT22;5127;50.922;6.988;2022-11-20T07:14:06;7.30;68.10
10171;DHT22;5127;50.922;6.988;2022-11-20T07:16:35;7.30;68.30
10171;DHT22;5127;50.922;6.988;2022-11-20T07:19:02;7.30;68.20
10171;DHT22;5127;50.922;6.988;2022-11-20T07:21:30;7.30;68.30
10171;DHT22;5127;50.922;6.988;2022-11-20T07:23:57;7.30;68.30
10171;DHT22;5127;50.922;6.988;2022-11-20T07:26:24;7.40;68.40
10171;DHT22;5127;50.922;6.988;2022-11-20T07:28:51;7.40;68.50
10171;DHT22;5127;50.922;6.988;2022-11-20T07:31:19;7.40;68.50
10171;DHT22;5127;50.922;6.988;2022-11-20T07:33:47;7.40;68.50
10171;DHT22;5127;50.922;6.988;2022-11-20T07:36:14;7.40;69.10
10171;DHT22;5127;50.922;6.988;2022-11-20T07:38:42;7.40;68.60
10171;DHT22;5127;50.922;6.988;2022-11-20T07:41:09;7.40;68.60
10171;DHT22;5127;50.922;6.988;2022-11-20T07:43:36;7.40;68.50
10171;DHT22;5127;50.922;6.988;2022-11-20T07:46:04;7.40;68.50
10171;DHT22;5127;50.922;6.988;2022-11-20T07:48:31;7.50;68.60
10171;DHT22;5127;50.922;6.988;2022-11-20T07:51:00;7.50;68.60
10171;DHT22;5127;50.922;6.988;2022-11-20T07:53:27;7.50;68.50
10171;DHT22;5127;50.922;6.988;2022-11-20T07:55:54;7.50;68.60
10171;DHT22;5127;50.922;6.988;2022-11-20T07:58:22;7.50;68.60
10171;DHT22;5127;50.922;6.988;2022-11-20T08:00:49;7.50;68.70
10171;DHT22;5127;50.922;6.988;2022-11-20T08:03:17;7.50;68.70
10171;DHT22;5127;50.922;6.988;2022-11-20T08:05:44;7.60;68.80
10171;DHT22;5127;50.922;6.988;2022-11-20T08:08:12;7.60;68.80
10171;DHT22;5127;50.922;6.988;2022-11-20T08:10:40;7.60;68.80
10171;DHT22;5127;50.922;6.988;2022-11-20T08:13:08;7.60;68.80
10171;DHT22;5127;50.922;6.988;2022-11-20T08:15:53;7.60;68.80
10171;DHT22;5127;50.922;6.988;2022-11-20T08:18:20;7.70;68.90
10171;DHT22;5127;50.922;6.988;2022-11-20T08:20:48;7.70;69.00
10171;DHT22;5127;50.922;6.988;2022-11-20T08:23:16;7.70;68.90
10171;DHT22;5127;50.922;6.988;2022-11-20T08:25:43;7.80;68.90
10171;DHT22;5127;50.922;6.988;2022-11-20T08:28:15;7.80;69.00
10171;DHT22;5127;50.922;6.988;2022-11-20T08:30:43;7.80;68.80
10171;DHT22;5127;50.922;6.988;2022-11-20T08:33:11;7.80;68.70
10171;DHT22;5127;50.922;6.988;2022-11-20T08:35:39;7.90;68.80
10171;DHT22;5127;50.922;6.988;2022-11-20T08:38:07;7.90;68.80
10171;DHT22;5127;50.922;6.988;2022-11-20T08:40:36;7.90;68.80
10171;DHT22;5127;50.922;6.988;2022-11-20T08:43:03;7.90;68.80
10171;DHT22;5127;50.922;6.988;2022-11-20T08:45:31;7.90;68.80
10171;DHT22;5127;50.922;6.988;2022-11-20T08:48:00;7.90;68.80
10171;DHT22;5127;50.922;6.988;2022-11-20T08:50:27;8.00;68.90
10171;DHT22;5127;50.922;6.988;2022-11-20T08:52:54;8.00;69.10
10171;DHT22;5127;50.922;6.988;2022-11-20T08:55:21;8.00;69.10
10171;DHT22;5127;50.922;6.988;2022-11-20T08:57:50;8.10;69.10
10171;DHT22;5127;50.922;6.988;2022-11-20T09:00:18;8.10;69.10
10171;DHT22;5127;50.922;6.988;2022-11-20T09:02:45;8.20;69.30
10171;DHT22;5127;50.922;6.988;2022-11-20T09:05:12;8.20;69.30
10171;DHT22;5127;50.922;6.988;2022-11-20T09:07:39;8.30;69.30
10171;DHT22;5127;50.922;6.988;2022-11-20T09:10:08;8.30;69.20
10171;DHT22;5127;50.922;6.988;2022-11-20T09:12:36;8.30;69.10
10171;DHT22;5127;50.922;6.988;2022-11-20T09:15:05;8.40;69.10
10171;DHT22;5127;50.922;6.988;2022-11-20T09:17:33;8.40;69.10
10171;DHT22;5127;50.922;6.988;2022-11-20T09:20:00;8.50;69.50
10171;DHT22;5127;50.922;6.988;2022-11-20T09:22:27;8.50;69.30
10171;DHT22;5127;50.922;6.988;2022-11-20T09:24:54;8.60;69.20
10171;DHT22;5127;50.922;6.988;2022-11-20T09:27:21;8.60;69.10
10171;DHT22;5127;50.922;6.988;2022-11-20T09:29:49;8.60;69.00
10171;DHT22;5127;50.922;6.988;2022-11-20T09:32:18;8.70;69.10
10171;DHT22;5127;50.922;6.988;2022-11-20T09:34:45;8.70;69.00
10171;DHT22;5127;50.922;6.988;2022-11-20T09:37:12;8.70;69.20
10171;DHT22;5127;50.922;6.988;2022-11-20T09:39:39;8.80;69.40
10171;DHT22;5127;50.922;6.988;2022-11-20T09:42:25;8.80;69.30
10171;DHT22;5127;50.922;6.988;2022-11-20T09:45:09;8.90;68.00
10171;DHT22;5127;50.922;6.988;2022-11-20T09:47:54;8.90;68.10
10171;DHT22;5127;50.922;6.988;2022-11-20T09:50:31;9.00;68.20
10171;DHT22;5127;50.922;6.988;2022-11-20T09:53:13;9.00;68.60
10171;DHT22;5127;50.922;6.988;2022-11-20T09:55:43;9.00;68.60
10171;DHT22;5127;50.922;6.988;2022-11-20T09:58:16;9.00;69.10
10171;DHT22;5127;50.922;6.988;2022-11-20T10:00:47;9.10;68.70
10171;DHT22;5127;50.922;6.988;2022-11-20T10:03:26;9.10;68.90
10171;DHT22;5127;50.922;6.988;2022-11-20T10:06:00;9.10;68.30
10171;DHT22;5127;50.922;6.988;2022-11-20T10:08:29;9.10;68.50
10171;DHT22;5127;50.922;6.988;2022-11-20T10:11:05;9.20;68.90
10171;DHT22;5127;50.922;6.988;2022-11-20T10:13:41;9.20;68.60
10171;DHT22;5127;50.922;6.988;2022-11-20T10:16:22;9.20;68.30
10171;DHT22;5127;50.922;6.988;2022-11-20T10:19:05;9.30;68.20
10171;DHT22;5127;50.922;6.988;2022-11-20T10:21:41;9.30;68.10
10171;DHT22;5127;50.922;6.988;2022-11-20T10:24:33;9.30;68.30
10171;DHT22;5127;50.922;6.988;2022-11-20T10:27:08;9.30;67.60
10171;DHT22;5127;50.922;6.988;2022-11-20T10:29:42;9.30;68.00
10171;DHT22;5127;50.922;6.988;2022-11-20T10:32:15;9.30;68.30
10171;DHT22;5127;50.922;6.988;2022-11-20T10:34:48;9.30;68.10
10171;DHT22;5127;50.922;6.988;2022-11-20T10:37:19;9.30;68.00
10171;DHT22;5127;50.922;6.988;2022-11-20T10:39:50;9.30;68.30
10171;DHT22;5127;50.922;6.988;2022-11-20T10:42:26;9.30;68.30
10171;DHT22;5127;50.922;6.988;2022-11-20T10:45:04;9.30;68.30
10171;DHT22;5127;50.922;6.988;2022-11-20T10:47:38;9.30;68.20
10171;DHT22;5127;50.922;6.988;2022-11-20T10:50:11;9.30;68.90
10171;DHT22;5127;50.922;6.988;2022-11-20T10:52:46;9.30;68.40
10171;DHT22;5127;50.922;6.988;2022-11-20T10:55:27;9.40;68.40
10171;DHT22;5127;50.922;6.988;2022-11-20T10:58:04;9.40;68.10
10171;DHT22;5127;50.922;6.988;2022-11-20T11:00:35;9.40;68.20
10171;DHT22;5127;50.922;6.988;2022-11-20T11:03:07;9.40;68.80
10171;DHT22;5127;50.922;6.988;2022-11-20T11:05:48;9.50;68.80
10171;DHT22;5127;50.922;6.988;2022-11-20T11:08:17;9.50;68.20
10171;DHT22;5127;50.922;6.988;2022-11-20T11:10:51;9.50;68.30
10171;DHT22;5127;50.922;6.988;2022-11-20T11:13:20;9.40;67.80
10171;DHT22;5127;50.922;6.988;2022-11-20T11:16:05;9.40;68.10
10171;DHT22;5127;50.922;6.988;2022-11-20T11:18:39;9.40;67.80
10171;DHT22;5127;50.922;6.988;2022-11-20T11:21:09;9.40;68.40
10171;DHT22;5127;50.922;6.988;2022-11-20T11:23:39;9.40;68.30
10171;DHT22;5127;50.922;6.988;2022-11-20T11:26:18;9.40;68.50
10171;DHT22;5127;50.922;6.988;2022-11-20T11:28:53;9.40;67.90
10171;DHT22;5127;50.922;6.988;2022-11-20T11:31:25;9.40;68.20
10171;DHT22;5127;50.922;6.988;2022-11-20T11:34:02;9.40;68.60
10171;DHT22;5127;50.922;6.988;2022-11-20T11:36:33;9.40;69.00
10171;DHT22;5127;50.922;6.988;2022-11-20T11:39:02;9.50;68.70
10171;DHT22;5127;50.922;6.988;2022-11-20T11:41:32;9.50;69.00
10171;DHT22;5127;50.922;6.988;2022-11-20T11:44:14;9.60;68.80
10171;DHT22;5127;50.922;6.988;2022-11-20T11:47:00;9.60;68.60
10171;DHT22;5127;50.922;6.988;2022-11-20T11:49:27;9.70;68.70
10171;DHT22;5127;50.922;6.988;2022-11-20T11:52:02;9.70;68.60
10171;DHT22;5127;50.922;6.988;2022-11-20T11:54:34;9.70;67.70
10171;DHT22;5127;50.922;6.988;2022-11-20T11:57:10;9.70;67.80
10171;DHT22;5127;50.922;6.988;2022-11-20T11:59:47;9.60;67.70
10171;DHT22;5127;50.922;6.988;2022-11-20T12:02:28;9.60;67.50
10171;DHT22;5127;50.922;6.988;2022-11-20T12:05:00;9.60;67.40
10171;DHT22;5127;50.922;6.988;2022-11-20T12:07:39;9.60;67.90
10171;DHT22;5127;50.922;6.988;2022-11-20T12:10:16;9.50;67.50
10171;DHT22;5127;50.922;6.988;2022-11-20T12:12:48;9.50;67.60
10171;DHT22;5127;50.922;6.988;2022-11-20T12:15:25;9.50;68.00
10171;DHT22;5127;50.922;6.988;2022-11-20T12:17:53;9.50;67.60
10171;DHT22;5127;50.922;6.988;2022-11-20T12:20:22;9.50;68.40
10171;DHT22;5127;50.922;6.988;2022-11-20T12:22:58;9.50;68.20
10171;DHT22;5127;50.922;6.988;2022-11-20T12:25:29;9.50;67.90
10171;DHT22;5127;50.922;6.988;2022-11-20T12:31:19;9.50;67.40
10171;DHT22;5127;50.922;6.988;2022-11-20T12:34:05;9.50;67.50
10171;DHT22;5127;50.922;6.988;2022-11-20T12:36:40;9.60;67.70
10171;DHT22;5127;50.922;6.988;2022-11-20T12:39:33;9.60;67.90
10171;DHT22;5127;50.922;6.988;2022-11-20T12:45:35;9.60;67.50
10171;DHT22;5127;50.922;6.988;2022-11-20T12:48:21;9.60;68.00
10171;DHT22;5127;50.922;6.988;2022-11-20T12:51:03;9.60;67.60
10171;DHT22;5127;50.922;6.988;2022-11-20T12:53:37;9.60;67.90
10171;DHT22;5127;50.922;6.988;2022-11-20T12:56:21;9.60;68.20
10171;DHT22;5127;50.922;6.988;2022-11-20T12:58:59;9.70;68.00
10171;DHT22;5127;50.922;6.988;2022-11-20T13:01:34;9.70;68.10
10171;DHT22;5127;50.922;6.988;2022-11-20T13:04:24;9.70;69.00
10171;DHT22;5127;50.922;6.988;2022-11-20T13:06:56;9.80;67.70
10171;DHT22;5127;50.922;6.988;2022-11-20T13:09:24;9.80;68.60
10171;DHT22;5127;50.922;6.988;2022-11-20T13:12:01;9.80;68.60
10171;DHT22;5127;50.922;6.988;2022-11-20T13:14:34;9.80;67.80
10171;DHT22;5127;50.922;6.988;2022-11-20T13:17:09;9.80;68.20
10171;DHT22;5127;50.922;6.988;2022-11-20T13:19:39;9.90;68.20
10171;DHT22;5127;50.922;6.988;2022-11-20T13:22:08;9.90;68.60
10171;DHT22;5127;50.922;6.988;2022-11-20T13:24:35;9.90;68.20
10171;DHT22;5127;50.922;6.988;2022-11-20T13:27:17;9.90;68.50
10171;DHT22;5127;50.922;6.988;2022-11-20T13:29:47;9.90;68.20
10171;DHT22;5127;50.922;6.988;2022-11-20T13:32:26;10.00;67.50
10171;DHT22;5127;50.922;6.988;2022-11-20T13:35:00;10.00;67.60
10171;DHT22;5127;50.922;6.988;2022-11-20T13:37:30;10.00;67.30
10171;DHT22;5127;50.922;6.988;2022-11-20T13:40:20;10.00;67.10
10171;DHT22;5127;50.922;6.988;2022-11-20T13:42:56;10.10;66.20
10171;DHT22;5127;50.922;6.988;2022-11-20T13:45:26;10.10;66.60
10171;DHT22;5127;50.922;6.988;2022-11-20T13:47:54;10.00;67.00
10171;DHT22;5127;50.922;6.988;2022-11-20T13:50:37;10.00;66.90
10171;DHT22;5127;50.922;6.988;2022-11-20T13:53:23;10.00;66.40
10171;DHT22;5127;50.922;6.988;2022-11-20T13:55:59;10.00;66.60
10171;DHT22;5127;50.922;6.988;2022-11-20T13:58:40;10.00;66.80
10171;DHT22;5127;50.922;6.988;2022-11-20T14:01:15;10.00;66.30
10171;DHT22;5127;50.922;6.988;2022-11-20T14:03:43;9.90;67.90
10171;DHT22;5127;50.922;6.988;2022-11-20T14:06:14;9.90;68.10
10171;DHT22;5127;50.922;6.988;2022-11-20T14:08:46;9.90;67.90
10171;DHT22;5127;50.922;6.988;2022-11-20T14:11:15;9.90;67.90
10171;DHT22;5127;50.922;6.988;2022-11-20T14:13:59;9.90;68.00
10171;DHT22;5127;50.922;6.988;2022-11-20T14:16:27;9.90;67.40
10171;DHT22;5127;50.922;6.988;2022-11-20T14:18:57;9.90;68.20
10171;DHT22;5127;50.922;6.988;2022-11-20T14:21:26;9.90;68.20
10171;DHT22;5127;50.922;6.988;2022-11-20T14:24:02;9.90;68.20
10171;DHT22;5127;50.922;6.988;2022-11-20T14:26:29;9.90;68.20
10171;DHT22;5127;50.922;6.988;2022-11-20T14:28:59;9.90;68.40
10171;DHT22;5127;50.922;6.988;2022-11-20T14:31:27;9.90;68.20
10171;DHT22;5127;50.922;6.988;2022-11-20T14:33:55;9.80;68.20
10171;DHT22;5127;50.922;6.988;2022-11-20T14:36:24;9.90;68.40
10171;DHT22;5127;50.922;6.988;2022-11-20T14:38:52;9.90;68.40
10171;DHT22;5127;50.922;6.988;2022-11-20T14:41:21;9.90;68.50
10171;DHT22;5127;50.922;6.988;2022-11-20T14:43:53;9.90;68.40
10171;DHT22;5127;50.922;6.988;2022-11-20T14:46:23;9.90;68.30
10171;DHT22;5127;50.922;6.988;2022-11-20T14:48:53;9.90;68.40
10171;DHT22;5127;50.922;6.988;2022-11-20T14:51:30;9.80;68.40
10171;DHT22;5127;50.922;6.988;2022-11-20T14:54:08;9.90;68.00
10171;DHT22;5127;50.922;6.988;2022-11-20T14:56:36;9.90;68.10
10171;DHT22;5127;50.922;6.988;2022-11-20T14:59:04;9.90;68.80
10171;DHT22;5127;50.922;6.988;2022-11-20T15:01:33;9.90;68.80
10171;DHT22;5127;50.922;6.988;2022-11-20T15:04:05;9.90;68.70
10171;DHT22;5127;50.922;6.988;2022-11-20T15:06:32;9.90;69.20
10171;DHT22;5127;50.922;6.988;2022-11-20T15:09:01;9.90;68.80
10171;DHT22;5127;50.922;6.988;2022-11-20T15:11:31;9.90;68.80
10171;DHT22;5127;50.922;6.988;2022-11-20T15:14:02;9.90;68.80
10171;DHT22;5127;50.922;6.988;2022-11-20T15:16:32;9.90;68.70
10171;DHT22;5127;50.922;6.988;2022-11-20T15:19:00;9.90;68.80
10171;DHT22;5127;50.922;6.988;2022-11-20T15:21:28;9.90;68.80
10171;DHT22;5127;50.922;6.988;2022-11-20T15:23:57;9.90;68.80
10171;DHT22;5127;50.922;6.988;2022-11-20T15:26:26;9.90;68.90
10171;DHT22;5127;50.922;6.988;2022-11-20T15:28:54;9.90;69.00
10171;DHT22;5127;50.922;6.988;2022-11-20T15:31:22;9.90;69.10
10171;DHT22;5127;50.922;6.988;2022-11-20T15:33:51;9.90;69.10
10171;DHT22;5127;50.922;6.988;2022-11-20T15:36:19;9.90;69.20
10171;DHT22;5127;50.922;6.988;2022-11-20T15:38:46;9.90;69.30
10171;DHT22;5127;50.922;6.988;2022-11-20T15:41:13;9.90;69.40
10171;DHT22;5127;50.922;6.988;2022-11-20T15:43:40;9.90;69.50
10171;DHT22;5127;50.922;6.988;2022-11-20T15:46:11;9.90;69.70
10171;DHT22;5127;50.922;6.988;2022-11-20T15:48:40;9.80;69.60
10171;DHT22;5127;50.922;6.988;2022-11-20T15:51:20;9.80;69.60
10171;DHT22;5127;50.922;6.988;2022-11-20T15:53:48;9.90;69.70
10171;DHT22;5127;50.922;6.988;2022-11-20T15:56:15;9.80;69.90
10171;DHT22;5127;50.922;6.988;2022-11-20T15:58:42;9.80;70.00
10171;DHT22;5127;50.922;6.988;2022-11-20T16:01:11;9.80;70.10
10171;DHT22;5127;50.922;6.988;2022-11-20T16:03:38;9.80;70.30
10171;DHT22;5127;50.922;6.988;2022-11-20T16:06:06;9.80;70.40
10171;DHT22;5127;50.922;6.988;2022-11-20T16:08:35;9.80;70.50
10171;DHT22;5127;50.922;6.988;2022-11-20T16:11:02;9.80;70.60
10171;DHT22;5127;50.922;6.988;2022-11-20T16:13:31;9.80;70.70
10171;DHT22;5127;50.922;6.988;2022-11-20T16:16:20;9.80;70.80
10171;DHT22;5127;50.922;6.988;2022-11-20T16:18:48;9.80;70.80
10171;DHT22;5127;50.922;6.988;2022-11-20T16:21:15;9.80;70.90
10171;DHT22;5127;50.922;6.988;2022-11-20T16:23:44;9.80;71.10
10171;DHT22;5127;50.922;6.988;2022-11-20T16:26:12;9.80;71.20
10171;DHT22;5127;50.922;6.988;2022-11-20T16:28:40;9.90;71.40
10171;DHT22;5127;50.922;6.988;2022-11-20T16:31:09;9.90;71.40
10171;DHT22;5127;50.922;6.988;2022-11-20T16:33:36;9.90;71.50